Time;durP1;ratioP1;P1;durP2;ratioP2;P2;SDS_P1;SDS_P2;PMS_P1;PMS_P2;Temp;Humidity;BMP_temperature;BMP_pressure;BME280_temperature;BME280_humidity;BME280_pressure;Samples;Min_cycle;Max_cycle;Signal;HPM_P1;HPM_P2
2023/11/20 00:00:13;;;;;;;7.20;3.30;;;;;;;0.49;54.68;100155.23;106136;1251;65411;-56
2023/11/20 00:02:42;;;;;;;7.40;2.90;;;;;;;0.44;54.90;100155.11;107418;1251;61302;-54
2023/11/20 00:05:11;;;;;;;7.30;2.90;;;;;;;0.41;55.21;100155.38;105492;1257;62478;-54
2023/11/20 00:07:38;;;;;;;11.00;3.60;;;;;;;0.41;55.51;100153.84;107068;1251;60031;-55
2023/11/20 00:10:07;;;;;;;8.00;2.90;;;;;;;0.44;55.49;100152.02;105500;1254;60530;-54
2023/11/20 00:12:35;;;;;;;9.00;3.80;;;;;;;0.54;55.20;100154.54;105737;1256;72602;-58
2023/11/20 00:15:03;;;;;;;9.60;3.10;;;;;;;0.61;55.05;100153.71;105873;1256;64475;-57
2023/11/20 00:17:32;;;;;;;7.40;2.80;;;;;;;0.60;54.66;100151.70;106247;1251;70514;-55
2023/11/20 00:19:59;;;;;;;8.80;4.00;;;;;;;0.61;54.78;100150.27;107179;1251;60528;-55
2023/11/20 00:22:27;;;;;;;6.80;3.00;;;;;;;0.58;55.00;100151.60;105602;1251;60466;-55
2023/11/20 00:24:56;;;;;;;10.20;4.00;;;;;;;0.56;54.87;100155.48;105931;1251;64974;-54
2023/11/20 00:27:24;;;;;;;8.90;3.90;;;;;;;0.52;54.80;100153.75;106833;1252;60159;-55
2023/11/20 00:29:52;;;;;;;8.30;3.60;;;;;;;0.47;54.89;100154.45;105813;1251;71380;-55
2023/11/20 00:32:19;;;;;;;10.00;4.60;;;;;;;0.42;54.89;100151.58;105237;1253;60447;-54
2023/11/20 00:34:47;;;;;;;8.50;3.50;;;;;;;0.36;54.95;100152.33;105383;1251;60672;-55
2023/11/20 00:37:18;;;;;;;10.50;4.20;;;;;;;0.30;55.12;100150.52;106638;1253;73800;-55
2023/11/20 00:39:46;;;;;;;9.00;4.30;;;;;;;0.26;55.29;100148.95;106670;1251;61323;-55
2023/11/20 00:42:14;;;;;;;8.50;3.50;;;;;;;0.32;55.57;100149.02;105586;1256;62446;-54
2023/11/20 00:44:42;;;;;;;7.80;3.70;;;;;;;0.41;55.48;100146.98;105324;1251;60537;-54
2023/11/20 00:47:09;;;;;;;9.00;3.90;;;;;;;0.42;55.56;100144.84;105558;1251;60466;-54
2023/11/20 00:49:38;;;;;;;8.40;4.20;;;;;;;0.45;55.44;100145.41;106194;1251;73762;-56
2023/11/20 00:52:06;;;;;;;6.80;2.80;;;;;;;0.47;55.22;100144.82;105605;1251;63631;-53
2023/11/20 00:54:34;;;;;;;8.70;3.80;;;;;;;0.43;55.13;100141.88;105566;1251;62450;-55
2023/11/20 00:57:02;;;;;;;11.50;3.40;;;;;;;0.35;55.17;100140.63;105371;1254;60651;-55
2023/11/20 00:59:30;;;;;;;8.60;3.90;;;;;;;0.31;55.53;100137.88;106107;1251;60392;-56
2023/11/20 01:01:57;;;;;;;9.20;3.60;;;;;;;0.24;55.52;100140.23;105649;1252;73750;-55
2023/11/20 01:04:25;;;;;;;9.90;3.70;;;;;;;0.16;55.68;100140.05;106340;1255;70244;-56
2023/11/20 01:06:53;;;;;;;7.90;3.60;;;;;;;0.14;55.90;100141.14;106325;1251;70908;-57
2023/11/20 01:09:21;;;;;;;10.50;4.70;;;;;;;0.24;55.91;100138.48;107350;1256;60475;-57
2023/11/20 01:11:48;;;;;;;9.70;3.60;;;;;;;0.37;56.06;100131.78;105487;1251;60418;-56
2023/11/20 01:14:16;;;;;;;7.60;3.60;;;;;;;0.43;55.81;100126.52;105644;1251;72618;-57
2023/11/20 01:16:44;;;;;;;10.90;3.70;;;;;;;0.46;55.90;100126.02;106329;1255;67730;-57
2023/11/20 01:19:11;;;;;;;8.50;3.20;;;;;;;0.47;55.95;100123.59;106662;1253;62525;-58
2023/11/20 01:21:42;;;;;;;10.30;3.80;;;;;;;0.47;55.67;100123.60;105470;1256;60446;-57
2023/11/20 01:24:10;;;;;;;9.00;3.60;;;;;;;0.43;55.57;100125.82;106264;1255;60472;-57
2023/11/20 01:26:38;;;;;;;12.30;3.90;;;;;;;0.37;55.72;100127.24;105506;1251;73788;-56
2023/11/20 01:29:07;;;;;;;9.20;4.10;;;;;;;0.33;55.97;100123.81;105636;1256;61302;-56
2023/11/20 01:31:34;;;;;;;12.90;3.80;;;;;;;0.29;56.11;100124.48;106193;1251;63725;-56
2023/11/20 01:34:02;;;;;;;10.80;5.10;;;;;;;0.29;56.11;100120.03;106809;1256;60601;-55
2023/11/20 01:36:30;;;;;;;11.60;4.20;;;;;;;0.37;56.07;100115.03;106028;1251;60363;-56
2023/11/20 01:38:58;;;;;;;9.60;4.80;;;;;;;0.40;55.93;100111.12;106987;1251;63620;-54
2023/11/20 01:41:28;;;;;;;9.90;4.10;;;;;;;0.38;55.79;100105.48;105546;1256;60946;-55
2023/11/20 01:43:56;;;;;;;12.80;5.20;;;;;;;0.34;56.02;100104.09;106394;1251;63701;-56
2023/11/20 01:46:23;;;;;;;12.50;6.00;;;;;;;0.29;56.06;100107.08;105921;1255;60590;-55
2023/11/20 01:48:52;;;;;;;8.70;4.10;;;;;;;0.26;56.13;100109.44;105609;1251;60670;-56
2023/11/20 01:51:20;;;;;;;9.30;3.90;;;;;;;0.21;56.22;100109.80;106733;1251;72619;-56
2023/11/20 01:53:47;;;;;;;10.40;4.20;;;;;;;0.18;56.41;100109.09;105401;1257;60373;-55
2023/11/20 01:56:15;;;;;;;10.60;5.10;;;;;;;0.20;56.37;100111.23;105855;1251;63718;-57
2023/11/20 01:58:42;;;;;;;9.10;4.00;;;;;;;0.25;56.25;100109.31;108495;1251;60328;-57
2023/11/20 02:01:10;;;;;;;8.80;3.20;;;;;;;0.30;56.18;100115.85;106270;1253;59731;-57
2023/11/20 02:03:38;;;;;;;8.80;3.60;;;;;;;0.31;56.71;100112.86;105467;1251;72546;-56
2023/11/20 02:06:06;;;;;;;9.90;4.50;;;;;;;0.35;56.52;100110.96;106093;1257;69154;-55
2023/11/20 02:08:34;;;;;;;10.30;4.10;;;;;;;0.33;56.45;100111.58;106155;1254;71420;-55
2023/11/20 02:11:02;;;;;;;8.40;3.60;;;;;;;0.30;56.31;100108.59;106592;1254;59832;-57
2023/11/20 02:13:30;;;;;;;10.30;4.00;;;;;;;0.23;56.14;100107.14;106754;1251;60479;-57
2023/11/20 02:15:57;;;;;;;11.00;4.10;;;;;;;0.17;56.41;100109.98;106119;1251;73853;-57
2023/11/20 02:18:29;;;;;;;8.50;3.30;;;;;;;0.12;56.76;100112.44;105523;1257;69928;-58
2023/11/20 02:20:57;;;;;;;9.20;3.70;;;;;;;0.13;56.95;100107.90;105415;1254;63721;-57
2023/11/20 02:23:25;;;;;;;10.80;4.40;;;;;;;0.19;56.71;100101.28;105565;1252;60520;-56
2023/11/20 02:25:59;;;;;;;11.10;5.10;;;;;;;0.21;56.53;100098.98;105463;1251;60625;-56
2023/11/20 02:28:28;;;;;;;9.20;4.00;;;;;;;0.21;56.54;100098.77;106253;1251;64963;-54
2023/11/20 02:30:56;;;;;;;12.40;4.80;;;;;;;0.18;56.54;100093.22;106369;1251;62094;-54
2023/11/20 02:33:24;;;;;;;9.40;3.90;;;;;;;0.14;56.32;100091.98;105607;1251;72486;-55
2023/11/20 02:35:52;;;;;;;8.10;3.30;;;;;;;0.09;56.36;100092.36;105280;1256;60504;-57
2023/11/20 02:38:20;;;;;;;8.80;3.50;;;;;;;0.07;56.49;100089.54;105711;1251;59904;-52
2023/11/20 02:40:48;;;;;;;10.30;4.10;;;;;;;0.05;56.78;100090.98;105764;1251;71652;-53
2023/11/20 02:43:16;;;;;;;11.10;4.20;;;;;;;0.02;56.67;100085.42;106172;1251;69020;-54
2023/11/20 02:45:43;;;;;;;6.70;3.00;;;;;;;0.06;56.65;100082.00;105511;1251;72630;-54
2023/11/20 02:48:11;;;;;;;9.30;4.20;;;;;;;0.14;56.37;100079.91;106562;1255;60457;-55
2023/11/20 02:50:38;;;;;;;8.90;3.40;;;;;;;0.10;56.16;100074.05;105986;1256;60450;-55
2023/11/20 02:53:06;;;;;;;13.50;5.60;;;;;;;0.06;56.46;100073.67;106730;1251;72279;-54
2023/11/20 02:55:34;;;;;;;9.80;4.10;;;;;;;0.03;56.90;100067.60;105501;1252;69961;-55
2023/11/20 02:58:03;;;;;;;10.40;4.90;;;;;;;0.04;56.91;100067.76;106138;1251;71683;-55
2023/11/20 03:00:31;;;;;;;8.40;3.40;;;;;;;0.02;56.82;100070.75;106374;1251;60635;-57
2023/11/20 03:02:59;;;;;;;8.10;3.30;;;;;;;-0.02;56.66;100060.73;106452;1256;60450;-56
2023/11/20 03:05:27;;;;;;;8.80;4.10;;;;;;;-0.06;56.58;100063.31;105483;1251;74248;-55
2023/11/20 03:07:54;;;;;;;9.70;3.60;;;;;;;-0.05;56.97;100063.11;106980;1251;71010;-55
2023/11/20 03:10:22;;;;;;;8.70;4.10;;;;;;;0.01;56.96;100059.23;105303;1257;73079;-54
2023/11/20 03:12:50;;;;;;;11.70;4.70;;;;;;;0.08;56.70;100055.01;106614;1252;60587;-52
2023/11/20 03:15:18;;;;;;;9.90;4.00;;;;;;;0.13;56.56;100054.58;105820;1252;60532;-57
2023/11/20 03:17:46;;;;;;;7.00;2.90;;;;;;;0.12;56.89;100044.33;106065;1251;72591;-56
2023/11/20 03:20:14;;;;;;;8.60;3.30;;;;;;;0.14;57.21;100040.94;105308;1251;60463;-57
2023/11/20 03:22:42;;;;;;;11.50;4.30;;;;;;;0.15;57.15;100039.86;105860;1256;72549;-57
2023/11/20 03:25:10;;;;;;;7.60;3.60;;;;;;;0.14;57.04;100037.47;105494;1251;60548;-55
2023/11/20 03:27:38;;;;;;;9.50;5.40;;;;;;;0.11;56.85;100038.62;106229;1255;60335;-58
2023/11/20 03:30:08;;;;;;;8.70;3.80;;;;;;;0.08;56.93;100037.20;106129;1255;64916;-56
2023/11/20 03:32:39;;;;;;;7.80;3.70;;;;;;;0.12;57.00;100033.27;106023;1253;60408;-57
2023/11/20 03:35:07;;;;;;;10.40;4.10;;;;;;;0.22;57.03;100033.52;106098;1253;62414;-55
2023/11/20 03:37:34;;;;;;;8.60;4.10;;;;;;;0.29;56.99;100029.43;106806;1257;60405;-56
2023/11/20 03:40:03;;;;;;;9.80;4.20;;;;;;;0.32;57.33;100029.48;105417;1257;60449;-56
2023/11/20 03:42:31;;;;;;;10.30;4.40;;;;;;;0.36;57.36;100030.00;106971;1251;71638;-55
2023/11/20 03:44:59;;;;;;;13.20;3.90;;;;;;;0.39;56.96;100030.04;105802;1251;70292;-56
2023/11/20 03:47:27;;;;;;;9.80;3.90;;;;;;;0.39;56.86;100028.48;106748;1255;71450;-56
2023/11/20 03:49:54;;;;;;;9.80;3.90;;;;;;;0.37;56.67;100025.79;106183;1254;60377;-55
2023/11/20 03:52:22;;;;;;;9.60;3.60;;;;;;;0.33;56.62;100021.14;106016;1256;60730;-55
2023/11/20 03:54:50;;;;;;;10.90;5.40;;;;;;;0.28;56.75;100021.34;105562;1251;73961;-56
2023/11/20 03:57:17;;;;;;;11.10;4.30;;;;;;;0.24;56.77;100016.02;105861;1251;70234;-56
2023/11/20 03:59:46;;;;;;;11.40;4.60;;;;;;;0.21;56.66;100014.92;106447;1256;72653;-56
2023/11/20 04:02:16;;;;;;;15.50;4.50;;;;;;;0.29;56.81;100017.34;106579;1251;60546;-55
2023/11/20 04:04:43;;;;;;;8.60;4.00;;;;;;;0.37;56.58;100017.54;106635;1255;60486;-55
2023/11/20 04:07:11;;;;;;;11.60;5.20;;;;;;;0.40;56.70;100017.23;105557;1256;64875;-57
2023/11/20 04:09:40;;;;;;;7.50;3.70;;;;;;;0.41;56.53;100012.69;106044;1257;68714;-56
2023/11/20 04:12:09;;;;;;;13.70;5.60;;;;;;;0.42;56.45;100008.15;106459;1251;73452;-55
2023/11/20 04:14:36;;;;;;;12.80;5.00;;;;;;;0.41;56.28;100009.26;106567;1255;60549;-56
2023/11/20 04:17:05;;;;;;;11.20;4.40;;;;;;;0.37;56.45;100006.80;106182;1254;60363;-56
2023/11/20 04:19:33;;;;;;;10.50;4.60;;;;;;;0.31;56.47;100006.41;105564;1255;64833;-56
2023/11/20 04:22:01;;;;;;;10.50;4.50;;;;;;;0.24;56.65;100004.80;105406;1256;69090;-57
2023/11/20 04:24:30;;;;;;;9.20;3.40;;;;;;;0.19;56.97;100003.27;105483;1251;71388;-56
2023/11/20 04:26:58;;;;;;;10.60;3.90;;;;;;;0.23;57.07;100002.44;106133;1251;60552;-56
2023/11/20 04:29:25;;;;;;;9.90;4.20;;;;;;;0.31;57.18;100009.50;105475;1251;62203;-56
2023/11/20 04:31:53;;;;;;;8.40;4.00;;;;;;;0.34;57.06;100012.30;107157;1251;74237;-57
2023/11/20 04:34:21;;;;;;;11.90;4.30;;;;;;;0.33;56.71;100013.73;107183;1251;60417;-56
2023/11/20 04:36:48;;;;;;;10.60;4.60;;;;;;;0.30;56.57;100012.30;105804;1254;74925;-56
2023/11/20 04:39:16;;;;;;;9.30;4.60;;;;;;;0.25;56.54;100016.50;105467;1255;60572;-56
2023/11/20 04:41:45;;;;;;;9.80;3.10;;;;;;;0.20;56.58;100013.44;105892;1256;60444;-57
2023/11/20 04:44:12;;;;;;;11.70;5.20;;;;;;;0.13;56.77;100017.66;106347;1250;73973;-59
2023/11/20 04:46:42;;;;;;;11.50;3.50;;;;;;;0.08;57.03;100015.81;105924;1251;70534;-56
2023/11/20 04:49:10;;;;;;;7.60;4.10;;;;;;;0.06;57.11;100011.61;106022;1251;63736;-56
2023/11/20 04:51:38;;;;;;;7.50;3.60;;;;;;;0.10;57.08;100007.11;109337;1251;60943;-58
2023/11/20 04:54:05;;;;;;;13.00;4.10;;;;;;;0.20;56.86;100006.89;109431;1250;60555;-55
2023/11/20 04:56:33;;;;;;;12.00;3.80;;;;;;;0.24;56.79;100008.26;108887;1256;73952;-56
2023/11/20 04:59:01;;;;;;;9.80;4.00;;;;;;;0.27;57.01;100007.44;108053;1253;70282;-58
2023/11/20 05:01:32;;;;;;;7.90;4.90;;;;;;;0.31;57.20;100001.94;106371;1251;72672;-56
2023/11/20 05:04:00;;;;;;;11.70;4.50;;;;;;;0.34;57.21;100002.64;106863;1251;60408;-54
2023/11/20 05:06:30;;;;;;;8.40;4.80;;;;;;;0.36;57.18;99995.66;106302;1252;60466;-54
2023/11/20 05:08:57;;;;;;;11.60;4.90;;;;;;;0.36;56.89;99997.05;105628;1252;72541;-56
2023/11/20 05:11:25;;;;;;;15.00;4.90;;;;;;;0.32;56.79;99996.50;105640;1256;70119;-54
2023/11/20 05:13:58;;;;;;;11.10;5.20;;;;;;;0.26;56.82;99996.25;105589;1251;71415;-56
2023/11/20 05:16:28;;;;;;;11.20;5.00;;;;;;;0.22;56.84;99993.52;106354;1254;60552;-54
2023/11/20 05:18:56;;;;;;;14.90;5.60;;;;;;;0.27;56.81;99996.55;105618;1251;60546;-55
2023/11/20 05:21:24;;;;;;;12.10;5.30;;;;;;;0.32;56.82;100001.16;105271;1251;74358;-54
2023/11/20 05:23:52;;;;;;;11.70;5.50;;;;;;;0.34;56.92;100002.82;105230;1251;70278;-54
2023/11/20 05:26:19;;;;;;;10.50;4.50;;;;;;;0.36;57.02;100005.51;105303;1251;72611;-54
2023/11/20 05:28:50;;;;;;;8.40;3.80;;;;;;;0.34;56.87;100008.50;105388;1251;60509;-54
2023/11/20 05:31:18;;;;;;;11.50;5.60;;;;;;;0.28;56.65;100010.81;106583;1252;60408;-55
2023/11/20 05:33:46;;;;;;;6.20;3.20;;;;;;;0.24;56.75;100015.34;105245;1251;72784;-64
2023/11/20 05:36:15;;;;;;;9.20;4.70;;;;;;;0.21;56.91;100013.40;107053;1255;69952;-60
2023/11/20 05:38:43;;;;;;;11.80;4.90;;;;;;;0.18;57.19;100014.02;105296;1257;72691;-58
2023/11/20 05:41:11;;;;;;;8.80;3.50;;;;;;;0.16;57.17;100009.11;106021;1251;60811;-60
2023/11/20 05:43:39;;;;;;;10.90;4.40;;;;;;;0.22;57.20;100011.80;105378;1255;60286;-61
2023/11/20 05:46:07;;;;;;;8.10;3.00;;;;;;;0.32;57.04;100016.34;105909;1251;73823;-55
2023/11/20 05:48:36;;;;;;;11.00;4.70;;;;;;;0.37;56.92;100016.34;105493;1256;69223;-53
2023/11/20 05:51:04;;;;;;;11.60;3.90;;;;;;;0.39;56.93;100021.57;105380;1251;71460;-53
2023/11/20 05:53:32;;;;;;;11.40;5.80;;;;;;;0.41;57.20;100020.79;105428;1258;60549;-54
2023/11/20 05:56:00;;;;;;;8.90;3.40;;;;;;;0.43;57.24;100023.98;107218;1254;60734;-55
2023/11/20 05:58:27;;;;;;;10.60;3.40;;;;;;;0.44;57.28;100027.22;105942;1255;64986;-54
2023/11/20 06:00:55;;;;;;;8.90;5.10;;;;;;;0.44;57.30;100026.70;105406;1252;70388;-55
2023/11/20 06:03:23;;;;;;;11.60;4.30;;;;;;;0.49;57.39;100026.33;109108;1251;71232;-55
2023/11/20 06:05:50;;;;;;;11.10;5.50;;;;;;;0.51;57.52;100026.03;109328;1251;58523;-57
2023/11/20 06:08:18;;;;;;;12.00;5.30;;;;;;;0.54;57.45;100025.77;109303;1251;58767;-57
2023/11/20 06:10:45;;;;;;;9.40;3.90;;;;;;;0.66;56.99;100020.77;109340;1250;74316;-57
2023/11/20 06:13:13;;;;;;;10.30;4.70;;;;;;;0.77;56.53;100025.63;109446;1250;70294;-58
2023/11/20 06:15:41;;;;;;;13.40;4.90;;;;;;;0.83;56.46;100028.96;109107;1250;71247;-54
2023/11/20 06:18:08;;;;;;;15.80;5.10;;;;;;;0.83;55.82;100032.73;105963;1252;60444;-56
2023/11/20 06:20:36;;;;;;;9.80;4.50;;;;;;;0.81;55.91;100035.06;106009;1252;59953;-56
2023/11/20 06:23:06;;;;;;;9.80;4.40;;;;;;;0.76;55.85;100037.23;106671;1252;73794;-56
2023/11/20 06:25:33;;;;;;;15.00;5.90;;;;;;;0.69;55.73;100039.95;105927;1250;72748;-56
2023/11/20 06:28:01;;;;;;;12.60;5.80;;;;;;;0.63;56.20;100041.06;105470;1254;74031;-57
2023/11/20 06:30:29;;;;;;;9.70;4.40;;;;;;;0.60;56.39;100034.14;106719;1251;60468;-49
2023/11/20 06:32:56;;;;;;;8.80;3.10;;;;;;;0.57;56.06;100035.13;106706;1256;60449;-56
2023/11/20 06:35:24;;;;;;;12.40;4.90;;;;;;;0.51;56.07;100034.34;106102;1251;72547;-56
2023/11/20 06:37:51;;;;;;;11.50;5.70;;;;;;;0.47;56.18;100038.84;105547;1251;70279;-56
2023/11/20 06:40:19;;;;;;;11.30;4.20;;;;;;;0.53;56.09;100037.02;106417;1253;72399;-56
2023/11/20 06:42:47;;;;;;;10.10;4.30;;;;;;;0.56;56.01;100032.76;105826;1255;61008;-56
2023/11/20 06:45:14;;;;;;;9.60;4.20;;;;;;;0.56;55.88;100030.52;105986;1253;60443;-59
2023/11/20 06:47:42;;;;;;;9.60;4.50;;;;;;;0.54;56.05;100029.19;105430;1252;73881;-57
2023/11/20 06:50:10;;;;;;;10.30;4.20;;;;;;;0.51;56.05;100029.17;105573;1256;69044;-57
2023/11/20 06:52:38;;;;;;;7.20;3.30;;;;;;;0.48;56.24;100031.55;105826;1251;71457;-57
2023/11/20 06:55:06;;;;;;;8.50;3.60;;;;;;;0.51;56.66;100036.77;106101;1256;60574;-54
2023/11/20 06:57:35;;;;;;;8.40;3.90;;;;;;;0.48;56.44;100034.30;106217;1251;62559;-57
2023/11/20 07:00:05;;;;;;;11.40;4.10;;;;;;;0.44;56.43;100034.83;105562;1251;73719;-60
2023/11/20 07:02:33;;;;;;;10.40;4.20;;;;;;;0.42;56.66;100030.61;106738;1252;70060;-55
2023/11/20 07:05:01;;;;;;;10.00;4.00;;;;;;;0.50;56.54;100031.60;105942;1251;74183;-56
2023/11/20 07:07:30;;;;;;;9.10;2.90;;;;;;;0.62;56.55;100030.60;105910;1257;60561;-56
2023/11/20 07:09:59;;;;;;;11.70;4.00;;;;;;;0.67;56.51;100025.86;105315;1254;60510;-55
2023/11/20 07:12:27;;;;;;;7.80;3.00;;;;;;;0.69;56.73;100024.05;105964;1254;72980;-56
2023/11/20 07:14:55;;;;;;;10.40;4.20;;;;;;;0.70;56.79;100018.98;105199;1257;69191;-66
2023/11/20 07:17:22;;;;;;;8.70;4.00;;;;;;;0.73;56.64;100019.05;107493;1253;72052;-64
2023/11/20 07:19:50;;;;;;;11.50;3.60;;;;;;;0.74;56.80;100019.19;105329;1254;60562;-64
2023/11/20 07:22:18;;;;;;;11.40;4.80;;;;;;;0.75;56.95;100018.27;104174;1254;3880165;-62
2023/11/20 07:25:56;;;;;;;10.70;5.40;;;;;;;0.60;57.70;100015.28;101963;1295;601546;-66
2023/11/20 07:28:23;;;;;;;8.70;3.70;;;;;;;0.86;56.74;100013.27;104611;1267;59258;-62
2023/11/20 07:30:51;;;;;;;12.40;4.10;;;;;;;0.90;56.38;100010.30;105379;1263;59315;-64
2023/11/20 07:33:19;;;;;;;11.80;6.00;;;;;;;0.98;56.13;100006.84;104523;1263;72448;-62
2023/11/20 07:35:47;;;;;;;8.90;4.30;;;;;;;1.07;55.44;100008.14;104379;1265;70258;-62
2023/11/20 07:38:15;;;;;;;10.60;4.50;;;;;;;1.08;55.18;100006.19;102259;1267;4083842;-63
2023/11/20 07:40:43;;;;;;;9.70;5.30;;;;;;;1.07;55.39;100004.67;105111;1264;60518;-63
2023/11/20 07:43:11;;;;;;;9.00;4.10;;;;;;;1.08;55.49;100006.73;105128;1263;59394;-60
2023/11/20 07:45:38;;;;;;;8.50;4.30;;;;;;;1.07;55.53;99999.16;106006;1266;71252;-60
2023/11/20 07:48:07;;;;;;;10.20;4.40;;;;;;;1.08;55.41;99993.79;106117;1262;70613;-62
2023/11/20 07:50:35;;;;;;;9.20;4.10;;;;;;;1.08;55.81;99995.01;105731;1263;72598;-59
2023/11/20 07:53:04;;;;;;;10.00;4.90;;;;;;;1.09;56.11;99989.74;104552;1263;59746;-57
2023/11/20 07:55:31;;;;;;;10.30;4.90;;;;;;;1.12;55.81;99986.69;106877;1263;60046;-61
2023/11/20 07:57:59;;;;;;;12.70;4.70;;;;;;;1.15;55.87;99987.56;105024;1267;71807;-61
2023/11/20 08:00:27;;;;;;;10.10;4.30;;;;;;;1.20;56.11;99988.92;108579;1263;70173;-57
2023/11/20 08:02:54;;;;;;;8.70;4.40;;;;;;;1.27;56.38;99987.36;108497;1263;71775;-53
2023/11/20 08:05:22;;;;;;;6.70;3.10;;;;;;;1.33;55.92;99987.05;108533;1262;57947;-56
2023/11/20 08:07:50;;;;;;;10.30;4.00;;;;;;;1.38;56.10;99987.52;104806;1263;59737;-55
2023/11/20 08:10:19;;;;;;;14.50;5.50;;;;;;;1.41;55.96;99985.83;104558;1264;72881;-55
2023/11/20 08:12:46;;;;;;;9.00;4.20;;;;;;;1.47;56.10;99980.33;104753;1263;69671;-55
2023/11/20 08:15:14;;;;;;;8.90;3.90;;;;;;;1.59;55.97;99977.84;104710;1263;74812;-55
2023/11/20 08:17:42;;;;;;;10.50;4.50;;;;;;;1.64;55.84;99975.35;107615;1262;60043;-55
2023/11/20 08:20:12;;;;;;;8.70;3.50;;;;;;;1.69;55.79;99977.04;105031;1264;59644;-55
2023/11/20 08:22:40;;;;;;;9.10;3.40;;;;;;;1.69;55.82;99979.62;105664;1263;71685;-56
2023/11/20 08:25:08;;;;;;;38.00;5.90;;;;;;;1.71;55.85;99980.02;105195;1263;69021;-57
2023/11/20 08:27:37;;;;;;;9.70;4.40;;;;;;;1.78;56.24;99978.66;105090;1264;71407;-57
2023/11/20 08:30:09;;;;;;;12.20;5.10;;;;;;;1.83;56.35;99981.68;104777;1267;60443;-57
2023/11/20 08:32:37;;;;;;;9.10;3.70;;;;;;;1.87;56.43;99978.20;105395;1263;62643;-59
2023/11/20 08:35:06;;;;;;;11.00;4.30;;;;;;;1.95;56.33;99972.61;105141;1263;76317;-57
2023/11/20 08:37:33;;;;;;;12.10;4.30;;;;;;;2.06;56.00;99976.39;104622;1262;69184;-57
2023/11/20 08:40:01;;;;;;;12.10;3.60;;;;;;;2.08;55.58;99971.60;105641;1263;71955;-56
2023/11/20 08:42:29;;;;;;;10.20;4.30;;;;;;;2.12;55.62;99973.30;105154;1264;59692;-60
2023/11/20 08:44:56;;;;;;;11.70;5.50;;;;;;;2.12;55.48;99965.52;105819;1263;59740;-54
2023/11/20 08:47:24;;;;;;;9.10;4.90;;;;;;;2.09;55.19;99964.30;104739;1270;73078;-56
2023/11/20 08:49:53;;;;;;;8.60;3.80;;;;;;;2.07;55.48;99966.67;104692;1267;69369;-56
2023/11/20 08:52:21;;;;;;;9.90;4.20;;;;;;;2.02;55.70;99966.52;104633;1263;71762;-55
2023/11/20 08:54:48;;;;;;;12.20;5.10;;;;;;;1.99;55.98;99968.92;104673;1263;63106;-57
2023/11/20 08:57:16;;;;;;;9.90;4.80;;;;;;;2.04;55.65;99963.99;107071;1262;59740;-57
2023/11/20 08:59:44;;;;;;;9.00;3.90;;;;;;;2.11;55.67;99960.20;107582;1263;75202;-56
2023/11/20 09:02:12;;;;;;;9.70;4.10;;;;;;;2.17;56.09;99961.27;104411;1263;69304;-55
2023/11/20 09:04:40;;;;;;;9.00;4.20;;;;;;;2.20;55.65;99962.31;107211;1262;71490;-56
2023/11/20 09:07:08;;;;;;;8.60;4.10;;;;;;;2.22;55.30;99956.69;108356;1263;60075;-57
2023/11/20 09:09:36;;;;;;;10.80;4.80;;;;;;;2.25;55.30;99956.72;108719;1260;60868;-56
2023/11/20 09:12:04;;;;;;;8.80;3.40;;;;;;;2.28;55.51;99953.95;108694;1259;71828;-56
2023/11/20 09:14:32;;;;;;;11.10;5.10;;;;;;;2.31;55.80;99940.79;107966;1262;70589;-57
2023/11/20 09:16:59;;;;;;;9.90;4.40;;;;;;;2.37;55.50;99941.33;105614;1260;71377;-58
2023/11/20 09:19:27;;;;;;;7.30;2.90;;;;;;;2.43;55.19;99937.27;108092;1259;59501;-57
2023/11/20 09:21:55;;;;;;;6.80;3.20;;;;;;;2.47;55.49;99940.16;104935;1259;61290;-54
2023/11/20 09:24:22;;;;;;;9.00;4.00;;;;;;;2.51;55.65;99941.67;104718;1263;74272;-55
2023/11/20 09:26:50;;;;;;;9.50;3.60;;;;;;;2.53;55.70;99939.48;105007;1260;71244;-56
2023/11/20 09:29:18;;;;;;;8.40;3.50;;;;;;;2.55;55.52;99940.06;104867;1262;70454;-54
2023/11/20 09:31:47;;;;;;;7.60;3.20;;;;;;;2.53;55.44;99939.14;104860;1260;59519;-55
2023/11/20 09:34:15;;;;;;;10.10;4.10;;;;;;;2.48;55.36;99938.19;104645;1260;62322;-56
2023/11/20 09:36:43;;;;;;;8.90;3.30;;;;;;;2.49;55.36;99936.20;104683;1263;73141;-54
2023/11/20 09:39:13;;;;;;;8.40;3.70;;;;;;;2.57;55.47;99937.51;104593;1262;70425;-55
2023/11/20 09:41:43;;;;;;;10.00;4.20;;;;;;;2.62;55.47;99936.06;105247;1261;74552;-54
2023/11/20 09:44:11;;;;;;;8.60;4.10;;;;;;;2.63;55.49;99932.70;106217;1260;59781;-54
2023/11/20 09:46:44;;;;;;;8.30;3.90;;;;;;;2.65;55.35;99928.07;105457;1260;59946;-55
2023/11/20 09:49:23;;;;;;;8.40;3.40;;;;;;;2.67;55.18;99930.75;106134;1259;70823;-54
2023/11/20 09:51:55;;;;;;;12.10;4.30;;;;;;;2.67;55.16;99925.21;105215;1259;69990;-54
2023/11/20 09:54:24;;;;;;;9.10;4.10;;;;;;;2.69;55.49;99922.83;105382;1259;72050;-54
2023/11/20 09:56:52;;;;;;;7.20;3.70;;;;;;;2.78;55.22;99919.27;105015;1260;63004;-54
2023/11/20 09:59:20;;;;;;;10.40;5.00;;;;;;;2.89;54.99;99922.79;105939;1257;60061;-56
2023/11/20 10:01:51;;;;;;;10.40;4.50;;;;;;;2.94;55.12;99922.36;105670;1257;74892;-56
2023/11/20 10:04:19;;;;;;;10.30;4.50;;;;;;;3.00;55.08;99921.02;108895;1254;70439;-55
2023/11/20 10:06:47;;;;;;;9.70;4.30;;;;;;;3.03;54.62;99922.18;106071;1255;71338;-55
2023/11/20 10:09:15;;;;;;;10.60;4.40;;;;;;;3.08;54.46;99918.83;104919;1256;59752;-56
2023/11/20 10:11:43;;;;;;;8.00;3.40;;;;;;;3.11;54.30;99913.92;109069;1254;60423;-58
2023/11/20 10:14:13;;;;;;;9.90;3.40;;;;;;;3.19;54.35;99914.35;109102;1254;73423;-56
2023/11/20 10:16:43;;;;;;;8.80;3.60;;;;;;;3.24;54.01;99912.87;109070;1256;69614;-54
2023/11/20 10:19:14;;;;;;;8.50;3.20;;;;;;;3.26;53.45;99916.77;108863;1254;72653;-55
2023/11/20 10:21:42;;;;;;;10.10;3.60;;;;;;;3.25;53.18;99910.20;109058;1254;60181;-55
2023/11/20 10:24:13;;;;;;;9.00;3.80;;;;;;;3.28;53.17;99909.51;109068;1254;60183;-57
2023/11/20 10:26:44;;;;;;;10.30;4.20;;;;;;;3.35;53.36;99909.63;107394;1254;73355;-57
2023/11/20 10:29:12;;;;;;;7.20;2.80;;;;;;;3.40;53.40;99911.25;107368;1254;68851;-56
2023/11/20 10:31:45;;;;;;;8.20;4.20;;;;;;;3.45;52.65;99914.77;107433;1256;74517;-57
2023/11/20 10:34:16;;;;;;;12.70;4.00;;;;;;;3.58;52.36;99909.39;108918;1259;61740;-56
2023/11/20 10:37:08;;;;;;;7.00;3.40;;;;;;;3.65;52.25;99911.23;108966;1254;59982;-56
2023/11/20 10:39:37;;;;;;;9.30;3.40;;;;;;;3.67;51.77;99909.52;108931;1254;66860;-55
2023/11/20 10:42:05;;;;;;;8.70;3.70;;;;;;;3.75;51.66;99912.19;108815;1254;69158;-55
2023/11/20 10:44:35;;;;;;;11.80;4.40;;;;;;;3.80;51.20;99908.59;109087;1255;72782;-56
2023/11/20 10:47:06;;;;;;;12.20;4.60;;;;;;;3.84;50.71;99907.48;105747;1254;61068;-56
2023/11/20 10:49:34;;;;;;;9.90;4.20;;;;;;;3.85;50.60;99911.23;108910;1256;61437;-53
2023/11/20 10:52:03;;;;;;;7.60;3.80;;;;;;;3.87;50.70;99912.89;108181;1256;72708;-63
2023/11/20 10:54:38;;;;;;;8.30;4.20;;;;;;;3.89;50.70;99913.59;108269;1257;70467;-69
2023/11/20 10:57:06;;;;;;;9.20;4.70;;;;;;;3.91;50.60;99912.77;107237;1256;70671;-64
2023/11/20 10:59:39;;;;;;;8.50;3.30;;;;;;;3.93;51.04;99913.21;104919;1256;59656;-63
2023/11/20 11:02:10;;;;;;;7.40;3.30;;;;;;;3.95;50.84;99912.72;109062;1254;57415;-66
2023/11/20 11:04:39;;;;;;;7.60;3.10;;;;;;;3.98;50.10;99911.70;106444;1257;75256;-64
2023/11/20 11:07:10;;;;;;;7.40;2.70;;;;;;;3.98;49.86;99912.02;109042;1254;71189;-63
2023/11/20 11:09:38;;;;;;;8.70;3.50;;;;;;;4.00;49.24;99914.36;109015;1254;71528;-63
2023/11/20 11:12:06;;;;;;;6.80;3.30;;;;;;;4.01;49.59;99905.23;106278;1259;59673;-69
2023/11/20 11:14:34;;;;;;;10.50;3.70;;;;;;;4.02;49.67;99910.07;106057;1254;61004;-67
2023/11/20 11:17:09;;;;;;;8.90;3.50;;;;;;;4.03;49.79;99906.52;105053;1254;72765;-65
2023/11/20 11:19:42;;;;;;;8.10;3.50;;;;;;;4.04;49.27;99905.92;105818;1257;68825;-70
2023/11/20 11:22:13;;;;;;;7.20;3.50;;;;;;;4.03;48.97;99907.05;106225;1256;72335;-63
2023/11/20 11:24:42;;;;;;;8.10;3.30;;;;;;;4.03;49.30;99904.43;105538;1259;60396;-59
2023/11/20 11:27:12;;;;;;;8.10;3.00;;;;;;;4.05;49.01;99898.95;106627;1256;62335;-60
2023/11/20 11:29:42;;;;;;;7.20;3.30;;;;;;;4.06;48.80;99895.90;107239;1255;71894;-63